Time;durP1;ratioP1;P1;durP2;ratioP2;P2;SDS_P1;SDS_P2;PMS_P1;PMS_P2;Temp;Humidity;BMP_temperature;BMP_pressure;BME280_temperature;BME280_humidity;BME280_pressure;Samples;Min_cycle;Max_cycle;Signal;HPM_P1;HPM_P2
2023/12/08 00:00:26;;;;;;;33.70;17.25;;;;;;;;;;10471726;28;20299;-80
2023/12/08 00:05:27;;;;;;;30.15;15.23;;;;;;;;;;10469191;28;20021;-79
2023/12/08 00:10:27;;;;;;;33.50;16.35;;;;;;;;;;10468897;28;20016;-79
2023/12/08 00:15:27;;;;;;;36.83;18.17;;;;;;;;;;10469669;28;20048;-79
2023/12/08 00:20:27;;;;;;;38.35;15.90;;;;;;;;;;10466979;28;20311;-78
2023/12/08 00:25:28;;;;;;;35.60;16.97;;;;;;;;;;10471477;28;20268;-78
2023/12/08 00:30:29;;;;;;;30.05;15.00;;;;;;;;;;10466199;28;20084;-79
2023/12/08 00:35:29;;;;;;;34.63;17.10;;;;;;;;;;10478861;28;20033;-78
2023/12/08 00:40:29;;;;;;;37.78;16.77;;;;;;;;;;10464967;28;20021;-79
2023/12/08 00:45:30;;;;;;;31.23;15.63;;;;;;;;;;10464080;28;20033;-80
2023/12/08 00:50:30;;;;;;;34.55;16.45;;;;;;;;;;10465383;28;20358;-80
2023/12/08 00:55:30;;;;;;;33.83;16.42;;;;;;;;;;10463847;28;20013;-80
2023/12/08 01:00:30;;;;;;;33.47;16.50;;;;;;;;;;10463304;28;20055;-80
2023/12/08 01:05:30;;;;;;;30.42;15.68;;;;;;;;;;10479097;28;20341;-79
2023/12/08 01:10:31;;;;;;;26.45;14.98;;;;;;;;;;10478306;28;20303;-80
2023/12/08 01:15:31;;;;;;;29.05;14.18;;;;;;;;;;10463828;28;20303;-80
2023/12/08 01:20:31;;;;;;;28.42;15.70;;;;;;;;;;10505760;28;20299;-79
2023/12/08 01:25:31;;;;;;;29.75;14.02;;;;;;;;;;10477144;28;20044;-78
2023/12/08 01:30:32;;;;;;;46.72;22.23;;;;;;;;;;10462250;28;20060;-80
2023/12/08 01:35:32;;;;;;;39.07;20.07;;;;;;;;;;10462459;28;20062;-77
2023/12/08 01:40:32;;;;;;;37.78;17.88;;;;;;;;;;10477507;28;20036;-77
2023/12/08 01:45:32;;;;;;;27.50;15.13;;;;;;;;;;10463007;28;20092;-78
2023/12/08 01:50:33;;;;;;;29.80;16.00;;;;;;;;;;10477141;28;20032;-78
2023/12/08 01:55:34;;;;;;;33.35;17.52;;;;;;;;;;10478408;28;20027;-80
2023/12/08 02:00:34;;;;;;;29.08;14.48;;;;;;;;;;10460805;28;20032;-78
2023/12/08 02:05:36;;;;;;;31.70;14.40;;;;;;;;;;10460861;28;20088;-79
2023/12/08 02:10:37;;;;;;;24.90;13.55;;;;;;;;;;10476622;28;20024;-79
2023/12/08 02:15:38;;;;;;;27.75;12.95;;;;;;;;;;10476092;28;20352;-79
2023/12/08 02:20:39;;;;;;;24.48;13.13;;;;;;;;;;10476552;28;20049;-80
2023/12/08 02:25:39;;;;;;;23.30;12.63;;;;;;;;;;10460013;28;20238;-77
2023/12/08 02:30:39;;;;;;;26.50;12.55;;;;;;;;;;10460088;28;20036;-79
2023/12/08 02:35:41;;;;;;;23.63;11.73;;;;;;;;;;10477452;28;20146;-80
2023/12/08 02:40:41;;;;;;;23.65;12.73;;;;;;;;;;10460037;28;20036;-80
2023/12/08 02:45:41;;;;;;;27.10;12.77;;;;;;;;;;10460776;28;20326;-80
2023/12/08 02:50:42;;;;;;;19.05;10.40;;;;;;;;;;10459774;28;20035;-80
2023/12/08 02:55:42;;;;;;;17.58;9.75;;;;;;;;;;10459281;28;20274;-80
2023/12/08 03:00:42;;;;;;;16.92;8.90;;;;;;;;;;10476541;28;20012;-80
2023/12/08 03:05:43;;;;;;;17.40;10.00;;;;;;;;;;10459151;28;20028;-80
2023/12/08 03:10:43;;;;;;;19.63;14.15;;;;;;;;;;10473356;28;20025;-81
2023/12/08 03:15:43;;;;;;;23.17;9.32;;;;;;;;;;10458888;28;20032;-81
2023/12/08 03:20:43;;;;;;;25.40;10.00;;;;;;;;;;10457922;28;20025;-80
2023/12/08 03:25:43;;;;;;;14.15;8.50;;;;;;;;;;10459050;28;20021;-80
2023/12/08 03:30:44;;;;;;;17.55;9.93;;;;;;;;;;10458388;28;20314;-79
2023/12/08 03:35:45;;;;;;;17.75;9.20;;;;;;;;;;10458371;28;20029;-79
2023/12/08 03:40:45;;;;;;;19.05;10.75;;;;;;;;;;10458973;28;20025;-81
2023/12/08 03:45:45;;;;;;;19.52;9.65;;;;;;;;;;10457827;28;20295;-79
2023/12/08 03:50:45;;;;;;;19.80;9.85;;;;;;;;;;10458547;28;20258;-79
2023/12/08 03:55:46;;;;;;;20.15;10.23;;;;;;;;;;10457572;28;20139;-79
2023/12/08 04:00:46;;;;;;;18.52;8.75;;;;;;;;;;10457648;28;20102;-78
2023/12/08 04:05:46;;;;;;;17.63;9.20;;;;;;;;;;10458170;28;20065;-78
2023/12/08 04:10:47;;;;;;;16.55;8.52;;;;;;;;;;10457658;28;20025;-79
2023/12/08 04:15:48;;;;;;;21.30;9.03;;;;;;;;;;10457716;28;20103;-78
2023/12/08 04:20:48;;;;;;;14.90;7.82;;;;;;;;;;10457734;28;20480;-78
2023/12/08 04:25:49;;;;;;;18.17;11.88;;;;;;;;;;10457497;28;20083;-77
2023/12/08 04:30:49;;;;;;;749.30;440.77;;;;;;;;;;10457246;28;20070;-78
2023/12/08 04:35:49;;;;;;;631.83;435.00;;;;;;;;;;10459449;28;20017;-78
2023/12/08 04:40:49;;;;;;;92.63;84.18;;;;;;;;;;10467445;28;20196;-78
2023/12/08 04:45:49;;;;;;;21.02;12.40;;;;;;;;;;10468661;28;20235;-77
2023/12/08 04:50:50;;;;;;;527.90;366.10;;;;;;;;;;10469671;28;20525;-78
2023/12/08 04:55:50;;;;;;;721.38;396.40;;;;;;;;;;10464670;28;20309;-78
2023/12/08 05:00:51;;;;;;;36.78;22.13;;;;;;;;;;10458735;28;20080;-77
2023/12/08 05:05:51;;;;;;;38.33;18.27;;;;;;;;;;10481943;28;20055;-81
2023/12/08 05:10:51;;;;;;;18.55;8.98;;;;;;;;;;10460621;28;20025;-80
2023/12/08 05:15:51;;;;;;;17.67;9.70;;;;;;;;;;10449830;28;20053;-81
2023/12/08 05:20:51;;;;;;;18.23;9.75;;;;;;;;;;10449099;28;20218;-85
2023/12/08 05:25:52;;;;;;;15.77;9.13;;;;;;;;;;10463920;28;20299;-85
2023/12/08 05:30:52;;;;;;;14.68;8.82;;;;;;;;;;10478894;28;20025;-85
2023/12/08 05:35:53;;;;;;;16.55;9.00;;;;;;;;;;10481279;28;20017;-85
2023/12/08 05:40:53;;;;;;;17.30;9.40;;;;;;;;;;10475478;28;20554;-87
2023/12/08 05:45:53;;;;;;;16.58;9.68;;;;;;;;;;10474814;28;20025;-86
2023/12/08 05:50:53;;;;;;;17.60;9.23;;;;;;;;;;10434188;28;20168;-84
2023/12/08 05:55:55;;;;;;;17.98;9.00;;;;;;;;;;10424619;28;20016;-88
2023/12/08 06:00:56;;;;;;;16.92;9.25;;;;;;;;;;10452163;28;20021;-86
2023/12/08 06:05:56;;;;;;;15.35;9.70;;;;;;;;;;10472149;28;20021;-84
2023/12/08 06:10:56;;;;;;;16.85;9.73;;;;;;;;;;10459185;28;20048;-83
2023/12/08 06:15:56;;;;;;;15.30;8.55;;;;;;;;;;10456549;28;20106;-84
2023/12/08 06:20:58;;;;;;;14.98;8.52;;;;;;;;;;10456043;28;20040;-84
2023/12/08 06:25:58;;;;;;;13.55;9.00;;;;;;;;;;10457078;28;20013;-84
2023/12/08 06:30:58;;;;;;;13.85;7.47;;;;;;;;;;10460392;28;20195;-84
2023/12/08 06:35:58;;;;;;;17.77;8.82;;;;;;;;;;10461531;28;20056;-83
2023/12/08 06:40:58;;;;;;;17.58;9.80;;;;;;;;;;10460409;28;20025;-84
2023/12/08 06:46:01;;;;;;;18.90;9.45;;;;;;;;;;10459952;28;20314;-85
2023/12/08 06:51:03;;;;;;;16.15;8.48;;;;;;;;;;10460648;28;20299;-84
2023/12/08 06:56:04;;;;;;;16.50;7.82;;;;;;;;;;10459973;28;20008;-84
2023/12/08 07:01:05;;;;;;;14.70;8.32;;;;;;;;;;10459430;28;20327;-80
2023/12/08 07:06:06;;;;;;;13.32;7.20;;;;;;;;;;10475645;28;20029;-83
2023/12/08 07:11:06;;;;;;;14.87;8.27;;;;;;;;;;10457623;28;20131;-84
2023/12/08 07:16:09;;;;;;;15.93;8.23;;;;;;;;;;10436328;28;20544;-84
2023/12/08 07:21:09;;;;;;;18.23;8.95;;;;;;;;;;10474531;28;20040;-84
2023/12/08 07:26:10;;;;;;;20.27;8.60;;;;;;;;;;10472860;28;20013;-84
2023/12/08 07:31:12;;;;;;;13.35;8.80;;;;;;;;;;10475329;28;20319;-85
2023/12/08 07:36:12;;;;;;;17.77;8.90;;;;;;;;;;10473430;28;20277;-84
2023/12/08 07:41:12;;;;;;;15.65;8.52;;;;;;;;;;10475515;28;20021;-84
2023/12/08 07:46:12;;;;;;;19.55;8.82;;;;;;;;;;10459550;28;20084;-85
2023/12/08 07:51:13;;;;;;;22.95;10.80;;;;;;;;;;10432756;28;20291;-86
2023/12/08 07:56:13;;;;;;;23.20;10.68;;;;;;;;;;10460568;28;20013;-86
2023/12/08 08:01:13;;;;;;;15.82;9.30;;;;;;;;;;10475437;28;20021;-87
2023/12/08 08:06:13;;;;;;;17.77;9.05;;;;;;;;;;10476944;28;20259;-84
2023/12/08 08:11:14;;;;;;;18.85;9.02;;;;;;;;;;10484322;28;20021;-84
2023/12/08 08:16:14;;;;;;;22.33;11.13;;;;;;;;;;10490952;28;20112;-83
2023/12/08 08:21:15;;;;;;;18.75;10.52;;;;;;;;;;10503646;28;20327;-84
2023/12/08 08:26:15;;;;;;;18.02;9.90;;;;;;;;;;10466686;28;20302;-84
2023/12/08 08:31:18;;;;;;;25.20;9.75;;;;;;;;;;10465808;28;20031;-84
2023/12/08 08:36:19;;;;;;;;;;;;;;;;;;10466449;28;20327;-82
2023/12/08 08:41:19;;;;;;;;;;;;;;;;;;10478853;28;19909;-84
2023/12/08 08:46:19;;;;;;;;;;;;;;;;;;10466087;28;19912;-83
2023/12/08 08:51:19;;;;;;;;;;;;;;;;;;10464574;28;19908;-82
2023/12/08 08:56:19;;;;;;;;;;;;;;;;;;10519270;28;20118;-83
2023/12/08 09:01:19;;;;;;;;;;;;;;;;;;10469482;28;20206;-83
2023/12/08 09:06:19;;;;;;;;;;;;;;;;;;10464433;28;19920;-83
2023/12/08 09:11:19;;;;;;;;;;;;;;;;;;10463942;28;19942;-82
2023/12/08 09:16:19;;;;;;;;;;;;;;;;;;10463390;28;20202;-82
2023/12/08 09:21:19;;;;;;;;;;;;;;;;;;10463020;28;19988;-82
2023/12/08 09:26:20;;;;;;;;;;;;;;;;;;10479266;28;19904;-81
2023/12/08 09:31:20;;;;;;;;;;;;;;;;;;10478496;28;20119;-82
2023/12/08 09:36:20;;;;;;;;;;;;;;;;;;10462362;28;20099;-82
2023/12/08 09:41:20;;;;;;;;;;;;;;;;;;10463142;28;19976;-83
2023/12/08 09:46:20;;;;;;;;;;;;;;;;;;10454447;28;19909;-82
2023/12/08 09:51:20;;;;;;;;;;;;;;;;;;10447732;28;19909;-83
2023/12/08 09:56:20;;;;;;;;;;;;;;;;;;10462576;28;20099;-84
2023/12/08 10:01:21;;;;;;;;;;;;;;;;;;10463659;28;20199;-83
2023/12/08 10:06:21;;;;;;;;;;;;;;;;;;10480372;28;20133;-83
2023/12/08 10:11:21;;;;;;;;;;;;;;;;;;10477071;28;19916;-84
2023/12/08 10:16:21;;;;;;;;;;;;;;;;;;10478607;28;20113;-83
2023/12/08 10:21:21;;;;;;;;;;;;;;;;;;10478564;28;19943;-83
2023/12/08 10:26:21;;;;;;;;;;;;;;;;;;10461052;28;19916;-83
2023/12/08 10:31:21;;;;;;;;;;;;;;;;;;10461993;28;19909;-84
2023/12/08 10:36:22;;;;;;;;;;;;;;;;;;10461302;28;20216;-83
2023/12/08 10:41:22;;;;;;;;;;;;;;;;;;10461370;28;19916;-83
2023/12/08 10:46:22;;;;;;;;;;;;;;;;;;10462232;28;19905;-84
2023/12/08 10:51:22;;;;;;;;;;;;;;;;;;10459953;28;19909;-84
2023/12/08 10:56:22;;;;;;;;;;;;;;;;;;10476523;28;19950;-83
2023/12/08 11:01:23;;;;;;;;;;;;;;;;;;10482917;28;19905;-84
2023/12/08 11:06:25;;;;;;;;;;;;;;;;;;10460108;28;19976;-82
2023/12/08 11:11:26;;;;;;;;;;;;;;;;;;10479489;28;20018;-83
2023/12/08 11:16:26;;;;;;;;;;;;;;;;;;10459370;28;20207;-84
2023/12/08 11:21:27;;;;;;;;;;;;;;;;;;10458534;28;19950;-84
2023/12/08 11:26:27;;;;;;;;;;;;;;;;;;10475495;28;19905;-82
2023/12/08 11:31:27;;;;;;;;;;;;;;;;;;10473964;28;20293;-82
2023/12/08 11:36:30;;;;;;;22.42;13.45;;;;;;;;;;10471234;28;20412;-84
2023/12/08 11:41:30;;;;;;;22.63;10.80;;;;;;;;;;10458528;28;20335;-83
2023/12/08 11:46:31;;;;;;;21.08;10.43;;;;;;;;;;10482503;28;20074;-82
2023/12/08 11:51:31;;;;;;;24.85;10.57;;;;;;;;;;10468043;28;20020;-83
2023/12/08 11:56:38;;;;;;;21.40;11.60;;;;;;;;;;10467334;28;20207;-82
2023/12/08 12:01:42;;;;;;;20.43;10.40;;;;;;;;;;10468002;28;20016;-83
2023/12/08 12:06:42;;;;;;;22.60;11.90;;;;;;;;;;10466740;28;20210;-82
2023/12/08 12:11:43;;;;;;;22.97;10.70;;;;;;;;;;10466061;28;20032;-83
2023/12/08 12:16:43;;;;;;;22.38;11.38;;;;;;;;;;10467531;28;20335;-82
2023/12/08 12:21:44;;;;;;;27.63;13.77;;;;;;;;;;10465530;28;20021;-82
2023/12/08 12:26:44;;;;;;;27.58;14.10;;;;;;;;;;10465779;28;20360;-82
2023/12/08 12:31:46;;;;;;;28.77;12.50;;;;;;;;;;10503097;28;20036;-84
2023/12/08 12:36:46;;;;;;;26.42;12.10;;;;;;;;;;10486133;28;20021;-84
2023/12/08 12:41:46;;;;;;;25.73;13.73;;;;;;;;;;10481690;28;20215;-84
2023/12/08 12:46:46;;;;;;;26.38;12.90;;;;;;;;;;10480502;28;20027;-84
2023/12/08 12:51:47;;;;;;;25.38;12.95;;;;;;;;;;10465157;28;20255;-86
2023/12/08 12:56:48;;;;;;;32.90;15.82;;;;;;;;;;10481361;28;20025;-84
2023/12/08 13:01:49;;;;;;;24.05;13.52;;;;;;;;;;10464366;28;20307;-84
2023/12/08 13:06:49;;;;;;;33.80;13.77;;;;;;;;;;10465790;28;20092;-84
2023/12/08 13:11:49;;;;;;;33.60;14.40;;;;;;;;;;10468052;28;20192;-84
2023/12/08 13:16:49;;;;;;;30.52;15.38;;;;;;;;;;10480528;28;20108;-83
2023/12/08 13:21:50;;;;;;;29.45;15.20;;;;;;;;;;10467942;28;20029;-84
2023/12/08 13:26:50;;;;;;;30.17;15.32;;;;;;;;;;10448490;28;20031;-85
2023/12/08 13:31:50;;;;;;;30.25;13.95;;;;;;;;;;10510923;28;20364;-85
2023/12/08 13:36:50;;;;;;;31.63;14.63;;;;;;;;;;10480124;28;20025;-87
2023/12/08 13:41:51;;;;;;;30.50;14.98;;;;;;;;;;10478988;28;20029;-86
2023/12/08 13:46:52;;;;;;;31.95;15.98;;;;;;;;;;10477140;28;20282;-85
2023/12/08 13:51:53;;;;;;;35.58;16.50;;;;;;;;;;10519493;28;20106;-85
2023/12/08 13:56:53;;;;;;;29.17;13.77;;;;;;;;;;10502410;28;20029;-86
2023/12/08 14:01:53;;;;;;;27.70;12.63;;;;;;;;;;10463635;28;20082;-86
2023/12/08 14:06:53;;;;;;;25.67;12.27;;;;;;;;;;10486512;28;20021;-85
2023/12/08 14:11:53;;;;;;;26.80;12.60;;;;;;;;;;10498940;28;20024;-85
2023/12/08 14:16:54;;;;;;;21.15;9.82;;;;;;;;;;10459538;28;20055;-82
2023/12/08 14:21:54;;;;;;;33.35;15.40;;;;;;;;;;10456896;28;20029;-85
2023/12/08 14:26:54;;;;;;;31.25;12.50;;;;;;;;;;10459812;28;20028;-72
2023/12/08 14:31:54;;;;;;;21.17;11.25;;;;;;;;;;10454791;28;20025;-76
2023/12/08 14:36:55;;;;;;;27.05;13.13;;;;;;;;;;10453895;28;20037;-76
2023/12/08 14:41:55;;;;;;;25.35;11.95;;;;;;;;;;10454478;28;20041;-73
2023/12/08 14:46:56;;;;;;;28.05;13.73;;;;;;;;;;10453557;28;20552;-76
2023/12/08 14:51:56;;;;;;;24.67;13.13;;;;;;;;;;10430825;28;20037;-77
2023/12/08 14:56:56;;;;;;;21.83;13.05;;;;;;;;;;10454152;28;20031;-75
2023/12/08 15:01:56;;;;;;;32.65;14.45;;;;;;;;;;10431992;28;20025;-75
2023/12/08 15:06:56;;;;;;;32.10;15.70;;;;;;;;;;10434012;28;20297;-77
2023/12/08 15:11:57;;;;;;;35.08;16.35;;;;;;;;;;10436099;28;20028;-76
2023/12/08 15:16:57;;;;;;;32.03;15.85;;;;;;;;;;10441250;28;20049;-75
2023/12/08 15:21:59;;;;;;;25.20;12.23;;;;;;;;;;10454039;28;20040;-75
2023/12/08 15:27:00;;;;;;;25.67;11.90;;;;;;;;;;10433080;28;20029;-76
2023/12/08 15:32:00;;;;;;;24.10;10.95;;;;;;;;;;10432380;28;20319;-75
2023/12/08 15:37:00;;;;;;;26.88;10.88;;;;;;;;;;10445381;28;20021;-76
2023/12/08 15:42:01;;;;;;;27.70;12.65;;;;;;;;;;10438843;28;20032;-77
2023/12/08 15:47:02;;;;;;;26.88;11.57;;;;;;;;;;10472856;28;20024;-75
2023/12/08 15:52:02;;;;;;;21.83;10.55;;;;;;;;;;10472474;28;20231;-77
2023/12/08 15:57:03;;;;;;;23.48;10.85;;;;;;;;;;10473624;28;20108;-79
2023/12/08 16:02:05;;;;;;;20.52;11.90;;;;;;;;;;10439429;28;20031;-79
2023/12/08 16:07:06;;;;;;;26.73;12.02;;;;;;;;;;10456455;28;20035;-79
2023/12/08 16:12:06;;;;;;;24.83;12.98;;;;;;;;;;10480323;28;20031;-80
2023/12/08 16:17:06;;;;;;;24.52;12.57;;;;;;;;;;10462687;28;20102;-80
2023/12/08 16:22:06;;;;;;;24.50;11.80;;;;;;;;;;10456156;28;20188;-79
2023/12/08 16:27:08;;;;;;;29.63;12.40;;;;;;;;;;10456450;28;20215;-80
2023/12/08 16:32:08;;;;;;;26.98;12.45;;;;;;;;;;10463060;28;20048;-79
2023/12/08 16:37:09;;;;;;;27.05;13.38;;;;;;;;;;10479859;28;20033;-80
2023/12/08 16:42:09;;;;;;;29.92;13.30;;;;;;;;;;10463694;28;20029;-79
2023/12/08 16:47:10;;;;;;;25.75;12.65;;;;;;;;;;10499536;28;20039;-80
2023/12/08 16:52:10;;;;;;;23.25;12.70;;;;;;;;;;10503839;28;20031;-79
2023/12/08 16:57:11;;;;;;;23.10;12.32;;;;;;;;;;10463303;28;20299;-81
2023/12/08 17:02:11;;;;;;;24.58;12.02;;;;;;;;;;10480086;28;20046;-79
2023/12/08 17:07:11;;;;;;;26.70;13.07;;;;;;;;;;10463540;28;20021;-78
2023/12/08 17:12:12;;;;;;;28.33;12.90;;;;;;;;;;10478636;28;20021;-78
2023/12/08 17:17:12;;;;;;;23.23;12.25;;;;;;;;;;10463399;28;20383;-79
2023/12/08 17:22:12;;;;;;;25.27;12.90;;;;;;;;;;10462472;28;20055;-78
2023/12/08 17:27:12;;;;;;;29.33;12.45;;;;;;;;;;10463690;28;20088;-80
2023/12/08 17:32:15;;;;;;;27.75;12.18;;;;;;;;;;10462667;28;20071;-79
2023/12/08 17:37:15;;;;;;;28.00;12.43;;;;;;;;;;10477384;28;20021;-79
2023/12/08 17:42:15;;;;;;;28.88;13.95;;;;;;;;;;10460677;28;20375;-79
2023/12/08 17:47:16;;;;;;;23.40;11.50;;;;;;;;;;10477290;28;20149;-78
2023/12/08 17:52:20;;;;;;;23.43;11.90;;;;;;;;;;10468671;28;20024;-84
2023/12/08 17:57:20;;;;;;;30.30;13.65;;;;;;;;;;10500826;28;20262;-78
2023/12/08 18:02:21;;;;;;;39.35;13.77;;;;;;;;;;10450505;28;20045;-80
2023/12/08 18:07:21;;;;;;;31.98;14.40;;;;;;;;;;10449394;28;20013;-77
2023/12/08 18:12:23;;;;;;;30.92;15.88;;;;;;;;;;10437010;28;20029;-81
2023/12/08 18:17:23;;;;;;;33.42;12.55;;;;;;;;;;10441819;28;20053;-83
2023/12/08 18:22:27;;;;;;;32.15;13.07;;;;;;;;;;10447168;28;20076;-82
2023/12/08 18:27:31;;;;;;;31.13;15.05;;;;;;;;;;10449593;28;20184;-84
2023/12/08 18:32:31;;;;;;;33.00;14.90;;;;;;;;;;10440831;28;20021;-81
2023/12/08 18:37:49;;;;;;;32.83;14.30;;;;;;;;;;10456544;28;20029;-85
2023/12/08 18:42:49;;;;;;;38.57;13.53;;;;;;;;;;10450916;28;20029;-81
2023/12/08 18:47:49;;;;;;;30.40;14.63;;;;;;;;;;10437880;28;20267;-81
2023/12/08 18:52:50;;;;;;;24.77;12.98;;;;;;;;;;10440935;28;20021;-79
2023/12/08 18:57:50;;;;;;;27.80;14.50;;;;;;;;;;10436972;28;20183;-81
2023/12/08 19:02:52;;;;;;;29.75;14.43;;;;;;;;;;10436532;28;20342;-82
2023/12/08 19:07:52;;;;;;;30.95;14.48;;;;;;;;;;10440389;28;20021;-81
2023/12/08 19:12:52;;;;;;;30.77;14.93;;;;;;;;;;10442513;28;20040;-80
2023/12/08 19:17:54;;;;;;;28.25;14.25;;;;;;;;;;10442122;28;20041;-81
2023/12/08 19:22:57;;;;;;;26.02;13.27;;;;;;;;;;10460904;28;20087;-85
2023/12/08 19:27:57;;;;;;;27.45;12.52;;;;;;;;;;10446455;28;20024;-79
2023/12/08 19:32:57;;;;;;;23.17;12.18;;;;;;;;;;10437876;28;20036;-76
2023/12/08 19:37:58;;;;;;;27.00;13.27;;;;;;;;;;10434298;28;20025;-76
2023/12/08 19:43:00;;;;;;;30.73;14.85;;;;;;;;;;10425434;28;20033;-76
2023/12/08 19:48:00;;;;;;;41.25;16.17;;;;;;;;;;10443407;28;20323;-75
2023/12/08 19:53:00;;;;;;;38.00;17.85;;;;;;;;;;10433251;28;20021;-76
2023/12/08 19:58:01;;;;;;;51.28;19.52;;;;;;;;;;10455390;28;20025;-78
2023/12/08 20:03:03;;;;;;;38.95;18.90;;;;;;;;;;10432100;28;20140;-74
2023/12/08 20:08:03;;;;;;;45.15;21.25;;;;;;;;;;10440927;28;20017;-79
2023/12/08 20:13:04;;;;;;;41.30;19.05;;;;;;;;;;10443719;28;20094;-78
2023/12/08 20:18:04;;;;;;;37.63;18.60;;;;;;;;;;10447517;28;20207;-81
2023/12/08 20:23:07;;;;;;;46.95;20.40;;;;;;;;;;10445804;28;20017;-81
2023/12/08 20:28:31;;;;;;;50.13;22.58;;;;;;;;;;10445814;28;20307;-83
2023/12/08 20:33:35;;;;;;;49.88;22.15;;;;;;;;;;10444096;28;20037;-82
2023/12/08 20:38:37;;;;;;;47.63;23.30;;;;;;;;;;10458230;28;20285;-78
2023/12/08 20:43:37;;;;;;;50.67;23.35;;;;;;;;;;10448011;28;20025;-78
2023/12/08 20:48:38;;;;;;;53.72;22.98;;;;;;;;;;10445963;28;20310;-80
2023/12/08 20:53:38;;;;;;;48.35;22.05;;;;;;;;;;10431821;28;20013;-80
2023/12/08 20:58:38;;;;;;;52.05;22.83;;;;;;;;;;10446489;28;20050;-89
2023/12/08 21:03:45;;;;;;;53.17;23.85;;;;;;;;;;10466135;28;20565;-89
2023/12/08 21:08:45;;;;;;;49.95;23.27;;;;;;;;;;10452863;28;20016;-86
2023/12/08 21:13:46;;;;;;;57.65;25.30;;;;;;;;;;10448465;28;20105;-80
2023/12/08 21:18:48;;;;;;;58.00;25.80;;;;;;;;;;10459907;28;20075;-85
2023/12/08 21:23:49;;;;;;;63.40;27.90;;;;;;;;;;10446311;28;20024;-84
2023/12/08 21:28:51;;;;;;;64.53;29.60;;;;;;;;;;10453043;28;20026;-84
2023/12/08 21:33:51;;;;;;;59.90;27.33;;;;;;;;;;10439285;28;20039;-81
2023/12/08 21:38:52;;;;;;;59.45;26.52;;;;;;;;;;10441607;28;20027;-82
2023/12/08 21:43:52;;;;;;;55.20;25.17;;;;;;;;;;10481001;28;20087;-83
2023/12/08 21:48:54;;;;;;;57.33;25.00;;;;;;;;;;10484147;28;20023;-84
2023/12/08 21:53:55;;;;;;;51.03;24.75;;;;;;;;;;10488068;28;20119;-83
2023/12/08 21:58:55;;;;;;;45.83;22.77;;;;;;;;;;10440513;28;20112;-84
2023/12/08 22:03:56;;;;;;;51.42;23.77;;;;;;;;;;10468129;28;20051;-85
2023/12/08 22:08:56;;;;;;;47.10;22.92;;;;;;;;;;10482055;28;20208;-84
2023/12/08 22:13:57;;;;;;;49.75;23.52;;;;;;;;;;10438545;28;20126;-84
2023/12/08 22:18:57;;;;;;;48.00;21.52;;;;;;;;;;10440910;28;20024;-84
2023/12/08 22:23:57;;;;;;;45.22;20.27;;;;;;;;;;10424914;28;20025;-85
2023/12/08 22:29:06;;;;;;;41.07;19.33;;;;;;;;;;10426566;28;20088;-88
2023/12/08 22:34:07;;;;;;;47.28;21.58;;;;;;;;;;10447209;28;20077;-87
2023/12/08 22:39:07;;;;;;;46.20;21.25;;;;;;;;;;10428193;28;20189;-86
2023/12/08 22:44:23;;;;;;;47.53;19.60;;;;;;;;;;10453477;28;20024;-87
2023/12/08 22:49:23;;;;;;;46.35;21.13;;;;;;;;;;10483537;28;20025;-87
2023/12/08 22:54:24;;;;;;;36.13;16.47;;;;;;;;;;10484505;28;20024;-86
2023/12/08 22:59:26;;;;;;;42.17;18.10;;;;;;;;;;10485135;28;20269;-86
2023/12/08 23:04:38;;;;;;;41.78;18.75;;;;;;;;;;10469550;28;20017;-87
2023/12/08 23:09:38;;;;;;;36.95;18.42;;;;;;;;;;10472206;28;20021;-88
2023/12/08 23:14:48;;;;;;;45.17;19.48;;;;;;;;;;10499735;28;20036;-89
2023/12/08 23:19:48;;;;;;;42.17;19.38;;;;;;;;;;10517324;28;20055;-88
2023/12/08 23:24:48;;;;;;;37.70;18.80;;;;;;;;;;10515982;28;20329;-87
2023/12/08 23:29:49;;;;;;;40.03;18.38;;;;;;;;;;10486772;28;20303;-86
2023/12/08 23:34:51;;;;;;;43.17;20.25;;;;;;;;;;10503515;28;20026;-87
2023/12/08 23:39:51;;;;;;;37.28;16.73;;;;;;;;;;10522530;28;20036;-86
2023/12/08 23:44:52;;;;;;;39.35;17.52;;;;;;;;;;10476580;28;20052;-87
2023/12/08 23:49:52;;;;;;;39.67;17.60;;;;;;;;;;10491746;28;20096;-86
2023/12/08 23:54:52;;;;;;;35.17;18.43;;;;;;;;;;10492156;28;20062;-85
2023/12/08 23:59:52;;;;;;;37.13;17.80;;;;;;;;;;10435735;28;20296;-84
